Buckley Air Force Base Aurora US
ICAO: KBKF
IATA: BFK
Category: Medium
Scheduled Services: No

Elevation: 5662 ft
TransAlt. 18000 ft.

Airport Communications:
DENVER APP/DEP:128.45
ATIS:119.675
GND/CLNC DEL:121.6
PMSV METRO:22.845
PTD:37.22
TWR:121

KBKF Zoom In..

Runways:

(A) RW 14 length 11006 ft width 150 ft
---- / hdg 140

(B) RW 32 length 11006 ft width 150 ft
ILS 109.70 / hdg 320

Location; KBKF
Day. 19 / Time. 02.58 Zulu
* Altimeter: 30.13
* Temperature: 26° c. 78.8°f.
* Wind from: 160° Speed 09 kn.
Dewpoint: 06° c.
Visibility: 10 Statute Miles.
Clouds: Scattered 15000 ft.
Clouds: Scattered 2000 ft.

KBKF 190258Z 16009KT 10SM SCT150 SCT200 26/06 A3013 RMK AO2A SLP121 T02630063 53005


Wind From 160°
Speed 09 kn.

 
 
jpsmedia.com for Web Design worldairports.se 2018   terms of use